aviador You're here:

KDYB Decoded Metar

in
Report Time2017-07-23 00:35:00
UTC Time2017-07-23 00:49:40
Flight Rules vfr VFR
Wind170° at 03 kt
W.Decomp.*RWY 24: 1.0 kt HW 2.8 kt LCW
W.Rank170° ranks 7
Current wind is below 170° avg. (4.8)
Visibility9999 m
Phenomena:N/A
Clouds:N/A
Expected CloudBase > 1,600 ft AGL from Temp-Dew spread
CeilingNone
Temp28°C
Dew Point24°C (79% RH)
Heat Index31.9°C
QNH1015 hPa
Raw Report
KDYB 230035Z AUTO 17003KT 10SM CLR 28/24 A2997 RMK AO1=

Extra information for KDYB:More info

Social comments